sensor_id;sensor_type;location;lat;lon;timestamp;P1;durP1;ratioP1;P2;durP2;ratioP2
76125;SDS011;65174;48.138;21.002;2023-04-26T00:02:19;1.83;;;1.40;;
76125;SDS011;65174;48.138;21.002;2023-04-26T00:05:23;4.30;;;1.43;;
76125;SDS011;65174;48.138;21.002;2023-04-26T00:08:25;2.25;;;2.05;;
76125;SDS011;65174;48.138;21.002;2023-04-26T00:11:27;1.65;;;1.48;;
76125;SDS011;65174;48.138;21.002;2023-04-26T00:14:29;1.90;;;1.67;;
76125;SDS011;65174;48.138;21.002;2023-04-26T00:17:32;2.17;;;1.98;;
76125;SDS011;65174;48.138;21.002;2023-04-26T00:20:34;2.43;;;2.23;;
76125;SDS011;65174;48.138;21.002;2023-04-26T00:23:36;2.75;;;2.00;;
76125;SDS011;65174;48.138;21.002;2023-04-26T00:26:38;4.80;;;2.20;;
76125;SDS011;65174;48.138;21.002;2023-04-26T00:29:40;2.95;;;2.70;;
76125;SDS011;65174;48.138;21.002;2023-04-26T00:32:42;1.50;;;1.40;;
76125;SDS011;65174;48.138;21.002;2023-04-26T00:35:44;4.73;;;3.17;;
76125;SDS011;65174;48.138;21.002;2023-04-26T00:38:47;2.42;;;2.22;;
76125;SDS011;65174;48.138;21.002;2023-04-26T00:41:48;4.43;;;2.42;;
76125;SDS011;65174;48.138;21.002;2023-04-26T00:44:50;2.33;;;2.13;;
76125;SDS011;65174;48.138;21.002;2023-04-26T00:47:55;2.05;;;1.88;;
76125;SDS011;65174;48.138;21.002;2023-04-26T00:50:58;3.13;;;2.77;;
76125;SDS011;65174;48.138;21.002;2023-04-26T00:54:05;5.20;;;1.98;;
76125;SDS011;65174;48.138;21.002;2023-04-26T00:57:20;2.58;;;2.38;;
76125;SDS011;65174;48.138;21.002;2023-04-26T01:00:22;2.10;;;1.90;;
76125;SDS011;65174;48.138;21.002;2023-04-26T01:03:24;3.80;;;2.28;;
76125;SDS011;65174;48.138;21.002;2023-04-26T01:06:32;1.63;;;1.50;;
76125;SDS011;65174;48.138;21.002;2023-04-26T01:09:35;2.72;;;1.90;;
76125;SDS011;65174;48.138;21.002;2023-04-26T01:12:37;2.17;;;2.00;;
76125;SDS011;65174;48.138;21.002;2023-04-26T01:15:43;2.22;;;2.03;;
76125;SDS011;65174;48.138;21.002;2023-04-26T01:18:50;3.15;;;1.67;;
76125;SDS011;65174;48.138;21.002;2023-04-26T01:21:54;2.20;;;1.93;;
76125;SDS011;65174;48.138;21.002;2023-04-26T01:24:55;2.30;;;1.50;;
76125;SDS011;65174;48.138;21.002;2023-04-26T01:27:58;4.00;;;2.17;;
76125;SDS011;65174;48.138;21.002;2023-04-26T01:31:00;4.32;;;2.75;;
76125;SDS011;65174;48.138;21.002;2023-04-26T01:34:04;2.17;;;2.03;;
76125;SDS011;65174;48.138;21.002;2023-04-26T01:37:06;3.27;;;1.80;;
76125;SDS011;65174;48.138;21.002;2023-04-26T01:40:08;2.63;;;2.25;;
76125;SDS011;65174;48.138;21.002;2023-04-26T01:43:11;2.67;;;2.30;;
76125;SDS011;65174;48.138;21.002;2023-04-26T01:46:13;1.67;;;1.50;;
76125;SDS011;65174;48.138;21.002;2023-04-26T01:49:15;2.17;;;1.98;;
76125;SDS011;65174;48.138;21.002;2023-04-26T01:52:17;2.80;;;2.43;;
76125;SDS011;65174;48.138;21.002;2023-04-26T01:55:19;1.30;;;1.20;;
76125;SDS011;65174;48.138;21.002;2023-04-26T01:58:21;7.47;;;2.08;;
76125;SDS011;65174;48.138;21.002;2023-04-26T02:01:24;2.63;;;2.40;;
76125;SDS011;65174;48.138;21.002;2023-04-26T02:04:26;2.60;;;2.40;;
76125;SDS011;65174;48.138;21.002;2023-04-26T02:07:29;2.30;;;1.90;;
76125;SDS011;65174;48.138;21.002;2023-04-26T02:10:31;2.80;;;1.85;;
76125;SDS011;65174;48.138;21.002;2023-04-26T02:13:33;2.03;;;1.80;;
76125;SDS011;65174;48.138;21.002;2023-04-26T02:16:35;2.33;;;1.95;;
76125;SDS011;65174;48.138;21.002;2023-04-26T02:19:37;6.93;;;2.78;;
76125;SDS011;65174;48.138;21.002;2023-04-26T02:22:39;3.63;;;2.00;;
76125;SDS011;65174;48.138;21.002;2023-04-26T02:25:41;2.25;;;1.90;;
76125;SDS011;65174;48.138;21.002;2023-04-26T02:28:46;2.22;;;1.52;;
76125;SDS011;65174;48.138;21.002;2023-04-26T02:31:48;1.45;;;1.35;;
76125;SDS011;65174;48.138;21.002;2023-04-26T02:34:50;2.47;;;1.85;;
76125;SDS011;65174;48.138;21.002;2023-04-26T02:37:53;3.60;;;2.00;;
76125;SDS011;65174;48.138;21.002;2023-04-26T02:41:02;1.83;;;1.67;;
76125;SDS011;65174;48.138;21.002;2023-04-26T02:44:05;2.88;;;1.83;;
76125;SDS011;65174;48.138;21.002;2023-04-26T02:47:08;2.90;;;2.13;;
76125;SDS011;65174;48.138;21.002;2023-04-26T02:50:10;1.88;;;1.77;;
76125;SDS011;65174;48.138;21.002;2023-04-26T02:53:13;1.57;;;1.13;;
76125;SDS011;65174;48.138;21.002;2023-04-26T02:56:15;2.03;;;1.88;;
76125;SDS011;65174;48.138;21.002;2023-04-26T02:59:17;1.65;;;1.40;;
76125;SDS011;65174;48.138;21.002;2023-04-26T03:02:19;2.08;;;1.88;;
76125;SDS011;65174;48.138;21.002;2023-04-26T03:05:22;4.03;;;1.42;;
76125;SDS011;65174;48.138;21.002;2023-04-26T03:08:24;1.60;;;1.20;;
76125;SDS011;65174;48.138;21.002;2023-04-26T03:11:26;2.00;;;1.67;;
76125;SDS011;65174;48.138;21.002;2023-04-26T03:14:28;4.63;;;2.70;;
76125;SDS011;65174;48.138;21.002;2023-04-26T03:17:30;2.30;;;1.65;;
76125;SDS011;65174;48.138;21.002;2023-04-26T03:20:33;3.15;;;1.77;;
76125;SDS011;65174;48.138;21.002;2023-04-26T03:23:35;1.43;;;1.30;;
76125;SDS011;65174;48.138;21.002;2023-04-26T03:26:37;1.95;;;1.55;;
76125;SDS011;65174;48.138;21.002;2023-04-26T03:29:39;4.25;;;2.20;;
76125;SDS011;65174;48.138;21.002;2023-04-26T03:32:44;1.73;;;1.55;;
76125;SDS011;65174;48.138;21.002;2023-04-26T03:35:46;2.22;;;2.03;;
76125;SDS011;65174;48.138;21.002;2023-04-26T03:38:48;1.90;;;1.30;;
76125;SDS011;65174;48.138;21.002;2023-04-26T03:41:52;3.20;;;2.00;;
76125;SDS011;65174;48.138;21.002;2023-04-26T03:44:54;1.85;;;1.75;;
76125;SDS011;65174;48.138;21.002;2023-04-26T03:47:56;1.42;;;1.33;;
76125;SDS011;65174;48.138;21.002;2023-04-26T03:50:58;1.23;;;1.13;;
76125;SDS011;65174;48.138;21.002;2023-04-26T03:54:03;2.20;;;1.03;;
76125;SDS011;65174;48.138;21.002;2023-04-26T03:57:05;2.38;;;1.75;;
76125;SDS011;65174;48.138;21.002;2023-04-26T04:00:07;1.83;;;1.27;;
76125;SDS011;65174;48.138;21.002;2023-04-26T04:03:17;1.63;;;1.27;;
76125;SDS011;65174;48.138;21.002;2023-04-26T04:06:19;1.00;;;0.90;;
76125;SDS011;65174;48.138;21.002;2023-04-26T04:09:23;1.23;;;1.13;;
76125;SDS011;65174;48.138;21.002;2023-04-26T04:12:26;2.17;;;1.60;;
76125;SDS011;65174;48.138;21.002;2023-04-26T04:15:28;0.80;;;0.80;;
76125;SDS011;65174;48.138;21.002;2023-04-26T04:18:30;1.55;;;1.45;;
76125;SDS011;65174;48.138;21.002;2023-04-26T04:21:33;2.75;;;2.15;;
76125;SDS011;65174;48.138;21.002;2023-04-26T04:24:35;1.73;;;1.10;;
76125;SDS011;65174;48.138;21.002;2023-04-26T04:27:37;2.58;;;1.55;;
76125;SDS011;65174;48.138;21.002;2023-04-26T04:30:40;1.70;;;1.58;;
76125;SDS011;65174;48.138;21.002;2023-04-26T04:33:44;1.55;;;1.42;;
76125;SDS011;65174;48.138;21.002;2023-04-26T04:36:46;1.40;;;1.30;;
76125;SDS011;65174;48.138;21.002;2023-04-26T04:39:48;1.10;;;1.00;;
76125;SDS011;65174;48.138;21.002;2023-04-26T04:42:51;5.95;;;1.58;;
76125;SDS011;65174;48.138;21.002;2023-04-26T04:45:55;1.27;;;1.17;;
76125;SDS011;65174;48.138;21.002;2023-04-26T04:48:57;2.88;;;1.35;;
76125;SDS011;65174;48.138;21.002;2023-04-26T04:51:59;2.22;;;1.80;;
76125;SDS011;65174;48.138;21.002;2023-04-26T04:55:01;0.90;;;0.90;;
76125;SDS011;65174;48.138;21.002;2023-04-26T04:58:05;1.02;;;0.93;;
76125;SDS011;65174;48.138;21.002;2023-04-26T05:01:11;2.15;;;1.17;;
76125;SDS011;65174;48.138;21.002;2023-04-26T05:04:32;1.27;;;1.17;;
76125;SDS011;65174;48.138;21.002;2023-04-26T05:07:35;1.02;;;0.95;;
76125;SDS011;65174;48.138;21.002;2023-04-26T05:10:38;3.77;;;2.27;;
76125;SDS011;65174;48.138;21.002;2023-04-26T05:13:40;3.05;;;2.38;;
76125;SDS011;65174;48.138;21.002;2023-04-26T05:16:42;3.95;;;2.67;;
76125;SDS011;65174;48.138;21.002;2023-04-26T05:19:45;2.42;;;2.03;;
76125;SDS011;65174;48.138;21.002;2023-04-26T05:22:47;1.50;;;1.40;;
76125;SDS011;65174;48.138;21.002;2023-04-26T05:25:50;1.87;;;1.50;;
76125;SDS011;65174;48.138;21.002;2023-04-26T05:29:11;1.40;;;1.30;;
76125;SDS011;65174;48.138;21.002;2023-04-26T05:32:33;2.03;;;1.88;;
76125;SDS011;65174;48.138;21.002;2023-04-26T05:35:58;2.17;;;1.23;;
76125;SDS011;65174;48.138;21.002;2023-04-26T05:39:00;1.80;;;1.65;;
76125;SDS011;65174;48.138;21.002;2023-04-26T05:42:02;1.80;;;1.57;;
76125;SDS011;65174;48.138;21.002;2023-04-26T05:45:05;3.15;;;1.33;;
76125;SDS011;65174;48.138;21.002;2023-04-26T05:48:08;1.85;;;0.98;;
76125;SDS011;65174;48.138;21.002;2023-04-26T05:51:10;0.75;;;0.75;;
76125;SDS011;65174;48.138;21.002;2023-04-26T05:54:12;1.48;;;1.30;;
76125;SDS011;65174;48.138;21.002;2023-04-26T05:57:14;2.37;;;1.43;;
76125;SDS011;65174;48.138;21.002;2023-04-26T06:00:17;2.25;;;1.83;;
76125;SDS011;65174;48.138;21.002;2023-04-26T06:03:22;1.80;;;1.35;;
76125;SDS011;65174;48.138;21.002;2023-04-26T06:06:26;1.70;;;1.60;;
76125;SDS011;65174;48.138;21.002;2023-04-26T06:09:32;1.90;;;1.73;;
76125;SDS011;65174;48.138;21.002;2023-04-26T06:12:34;3.33;;;1.20;;
76125;SDS011;65174;48.138;21.002;2023-04-26T06:15:36;1.60;;;1.20;;
76125;SDS011;65174;48.138;21.002;2023-04-26T06:18:39;1.17;;;1.08;;
76125;SDS011;65174;48.138;21.002;2023-04-26T06:21:41;1.60;;;1.35;;
76125;SDS011;65174;48.138;21.002;2023-04-26T06:24:43;0.93;;;0.93;;
76125;SDS011;65174;48.138;21.002;2023-04-26T06:27:45;2.43;;;1.83;;
76125;SDS011;65174;48.138;21.002;2023-04-26T06:30:47;1.52;;;1.42;;
76125;SDS011;65174;48.138;21.002;2023-04-26T06:33:49;1.48;;;1.27;;
76125;SDS011;65174;48.138;21.002;2023-04-26T06:36:52;2.65;;;1.48;;
76125;SDS011;65174;48.138;21.002;2023-04-26T06:39:56;3.53;;;1.58;;
76125;SDS011;65174;48.138;21.002;2023-04-26T06:42:59;2.53;;;1.17;;
76125;SDS011;65174;48.138;21.002;2023-04-26T06:46:19;1.60;;;1.10;;
76125;SDS011;65174;48.138;21.002;2023-04-26T06:49:27;1.58;;;1.20;;
76125;SDS011;65174;48.138;21.002;2023-04-26T06:52:29;3.53;;;1.27;;
76125;SDS011;65174;48.138;21.002;2023-04-26T06:55:31;2.40;;;1.63;;
76125;SDS011;65174;48.138;21.002;2023-04-26T06:58:34;1.50;;;1.33;;
76125;SDS011;65174;48.138;21.002;2023-04-26T07:01:37;1.45;;;1.15;;
76125;SDS011;65174;48.138;21.002;2023-04-26T07:04:39;1.45;;;1.05;;
76125;SDS011;65174;48.138;21.002;2023-04-26T07:07:42;1.13;;;0.82;;
76125;SDS011;65174;48.138;21.002;2023-04-26T07:10:44;1.25;;;1.08;;
76125;SDS011;65174;48.138;21.002;2023-04-26T07:13:46;1.10;;;1.00;;
76125;SDS011;65174;48.138;21.002;2023-04-26T07:16:48;1.30;;;1.20;;
76125;SDS011;65174;48.138;21.002;2023-04-26T07:19:50;1.15;;;1.05;;
76125;SDS011;65174;48.138;21.002;2023-04-26T07:22:53;1.38;;;1.27;;
76125;SDS011;65174;48.138;21.002;2023-04-26T07:25:55;1.30;;;1.20;;
76125;SDS011;65174;48.138;21.002;2023-04-26T07:28:58;1.97;;;1.30;;
76125;SDS011;65174;48.138;21.002;2023-04-26T07:32:01;0.77;;;0.60;;
76125;SDS011;65174;48.138;21.002;2023-04-26T07:35:07;2.65;;;1.13;;
76125;SDS011;65174;48.138;21.002;2023-04-26T07:38:16;0.75;;;0.75;;
76125;SDS011;65174;48.138;21.002;2023-04-26T07:41:20;2.35;;;1.35;;
76125;SDS011;65174;48.138;21.002;2023-04-26T07:44:22;2.50;;;1.03;;
76125;SDS011;65174;48.138;21.002;2023-04-26T07:47:23;1.13;;;1.02;;
76125;SDS011;65174;48.138;21.002;2023-04-26T07:50:27;1.42;;;1.30;;
76125;SDS011;65174;48.138;21.002;2023-04-26T07:53:29;1.80;;;1.42;;
76125;SDS011;65174;48.138;21.002;2023-04-26T07:56:31;1.38;;;1.20;;
76125;SDS011;65174;48.138;21.002;2023-04-26T07:59:33;1.10;;;0.90;;
76125;SDS011;65174;48.138;21.002;2023-04-26T08:02:35;2.35;;;1.42;;
76125;SDS011;65174;48.138;21.002;2023-04-26T08:05:46;1.23;;;0.82;;
76125;SDS011;65174;48.138;21.002;2023-04-26T08:08:48;3.42;;;0.90;;
76125;SDS011;65174;48.138;21.002;2023-04-26T08:11:51;1.10;;;1.08;;
76125;SDS011;65174;48.138;21.002;2023-04-26T08:14:53;1.63;;;1.03;;
76125;SDS011;65174;48.138;21.002;2023-04-26T08:17:55;1.13;;;1.00;;
76125;SDS011;65174;48.138;21.002;2023-04-26T08:20:58;0.95;;;0.75;;
76125;SDS011;65174;48.138;21.002;2023-04-26T08:24:00;0.82;;;0.75;;
76125;SDS011;65174;48.138;21.002;2023-04-26T08:27:02;8.30;;;1.17;;
76125;SDS011;65174;48.138;21.002;2023-04-26T08:30:04;1.30;;;1.20;;
76125;SDS011;65174;48.138;21.002;2023-04-26T08:33:08;0.95;;;0.85;;
76125;SDS011;65174;48.138;21.002;2023-04-26T08:36:10;0.70;;;0.70;;
76125;SDS011;65174;48.138;21.002;2023-04-26T08:39:13;1.77;;;0.90;;
76125;SDS011;65174;48.138;21.002;2023-04-26T08:42:16;1.25;;;1.15;;
76125;SDS011;65174;48.138;21.002;2023-04-26T08:45:21;1.63;;;1.30;;
76125;SDS011;65174;48.138;21.002;2023-04-26T08:48:25;1.33;;;0.98;;
76125;SDS011;65174;48.138;21.002;2023-04-26T08:51:31;1.05;;;1.00;;
76125;SDS011;65174;48.138;21.002;2023-04-26T08:54:34;0.70;;;0.70;;
76125;SDS011;65174;48.138;21.002;2023-04-26T08:57:38;1.15;;;1.02;;
76125;SDS011;65174;48.138;21.002;2023-04-26T09:00:44;1.83;;;0.70;;
76125;SDS011;65174;48.138;21.002;2023-04-26T09:03:47;1.17;;;1.08;;
76125;SDS011;65174;48.138;21.002;2023-04-26T09:06:49;1.15;;;1.05;;
76125;SDS011;65174;48.138;21.002;2023-04-26T09:09:53;1.55;;;1.13;;
76125;SDS011;65174;48.138;21.002;2023-04-26T09:12:58;1.48;;;1.38;;
76125;SDS011;65174;48.138;21.002;2023-04-26T09:16:00;1.07;;;0.97;;
76125;SDS011;65174;48.138;21.002;2023-04-26T09:19:08;1.77;;;0.98;;
76125;SDS011;65174;48.138;21.002;2023-04-26T09:22:11;0.68;;;0.63;;
76125;SDS011;65174;48.138;21.002;2023-04-26T09:25:14;0.52;;;0.52;;
76125;SDS011;65174;48.138;21.002;2023-04-26T09:28:18;1.00;;;0.70;;
76125;SDS011;65174;48.138;21.002;2023-04-26T09:31:36;0.40;;;0.40;;
76125;SDS011;65174;48.138;21.002;2023-04-26T09:34:44;3.25;;;0.90;;
76125;SDS011;65174;48.138;21.002;2023-04-26T09:37:53;0.57;;;0.57;;
76125;SDS011;65174;48.138;21.002;2023-04-26T09:41:13;0.43;;;0.43;;
76125;SDS011;65174;48.138;21.002;2023-04-26T09:44:23;7.65;;;0.85;;
76125;SDS011;65174;48.138;21.002;2023-04-26T09:47:26;0.73;;;0.60;;
76125;SDS011;65174;48.138;21.002;2023-04-26T09:50:28;0.60;;;0.60;;
76125;SDS011;65174;48.138;21.002;2023-04-26T09:53:31;0.70;;;0.70;;
76125;SDS011;65174;48.138;21.002;2023-04-26T09:56:39;0.30;;;0.25;;
76125;SDS011;65174;48.138;21.002;2023-04-26T09:59:45;0.55;;;0.55;;
76125;SDS011;65174;48.138;21.002;2023-04-26T10:02:48;1.50;;;0.40;;
76125;SDS011;65174;48.138;21.002;2023-04-26T10:05:55;1.98;;;0.55;;
76125;SDS011;65174;48.138;21.002;2023-04-26T10:08:57;0.52;;;0.52;;
76125;SDS011;65174;48.138;21.002;2023-04-26T10:11:59;1.35;;;0.73;;
76125;SDS011;65174;48.138;21.002;2023-04-26T10:15:02;0.90;;;0.85;;
76125;SDS011;65174;48.138;21.002;2023-04-26T10:18:04;0.73;;;0.73;;
76125;SDS011;65174;48.138;21.002;2023-04-26T10:21:12;0.82;;;0.80;;
76125;SDS011;65174;48.138;21.002;2023-04-26T10:24:21;1.75;;;0.82;;
76125;SDS011;65174;48.138;21.002;2023-04-26T10:30:54;0.90;;;0.60;;
76125;SDS011;65174;48.138;21.002;2023-04-26T10:34:16;0.57;;;0.57;;
76125;SDS011;65174;48.138;21.002;2023-04-26T10:37:20;0.65;;;0.50;;
76125;SDS011;65174;48.138;21.002;2023-04-26T10:40:32;0.60;;;0.60;;
76125;SDS011;65174;48.138;21.002;2023-04-26T10:43:36;0.50;;;0.47;;
76125;SDS011;65174;48.138;21.002;2023-04-26T10:51:26;0.77;;;0.57;;
76125;SDS011;65174;48.138;21.002;2023-04-26T10:54:43;0.55;;;0.50;;
76125;SDS011;65174;48.138;21.002;2023-04-26T10:57:47;0.60;;;0.60;;
76125;SDS011;65174;48.138;21.002;2023-04-26T11:04:12;1.25;;;0.80;;
76125;SDS011;65174;48.138;21.002;2023-04-26T11:07:14;1.07;;;0.80;;
76125;SDS011;65174;48.138;21.002;2023-04-26T11:10:26;0.40;;;0.40;;
76125;SDS011;65174;48.138;21.002;2023-04-26T11:13:30;1.15;;;0.90;;
76125;SDS011;65174;48.138;21.002;2023-04-26T11:16:33;1.25;;;0.80;;
76125;SDS011;65174;48.138;21.002;2023-04-26T11:19:35;1.70;;;0.55;;
76125;SDS011;65174;48.138;21.002;2023-04-26T11:22:38;0.60;;;0.60;;
76125;SDS011;65174;48.138;21.002;2023-04-26T11:25:42;0.55;;;0.50;;
76125;SDS011;65174;48.138;21.002;2023-04-26T11:28:45;0.82;;;0.70;;
76125;SDS011;65174;48.138;21.002;2023-04-26T11:31:51;0.50;;;0.50;;
76125;SDS011;65174;48.138;21.002;2023-04-26T11:34:58;0.40;;;0.40;;
76125;SDS011;65174;48.138;21.002;2023-04-26T11:38:02;0.30;;;0.20;;
76125;SDS011;65174;48.138;21.002;2023-04-26T11:41:08;1.58;;;0.65;;
76125;SDS011;65174;48.138;21.002;2023-04-26T11:44:11;2.03;;;1.30;;
76125;SDS011;65174;48.138;21.002;2023-04-26T11:47:13;0.68;;;0.68;;
76125;SDS011;65174;48.138;21.002;2023-04-26T11:50:16;0.63;;;0.63;;
76125;SDS011;65174;48.138;21.002;2023-04-26T11:53:18;3.00;;;1.17;;
76125;SDS011;65174;48.138;21.002;2023-04-26T11:56:20;1.70;;;1.15;;
76125;SDS011;65174;48.138;21.002;2023-04-26T11:59:24;1.48;;;0.88;;
76125;SDS011;65174;48.138;21.002;2023-04-26T12:02:28;1.02;;;0.65;;
76125;SDS011;65174;48.138;21.002;2023-04-26T12:05:31;0.70;;;0.60;;
76125;SDS011;65174;48.138;21.002;2023-04-26T12:08:33;0.63;;;0.60;;
76125;SDS011;65174;48.138;21.002;2023-04-26T12:11:35;0.60;;;0.50;;
76125;SDS011;65174;48.138;21.002;2023-04-26T12:14:38;0.80;;;0.52;;
76125;SDS011;65174;48.138;21.002;2023-04-26T12:17:50;1.13;;;0.88;;
76125;SDS011;65174;48.138;21.002;2023-04-26T12:21:02;0.93;;;0.80;;
76125;SDS011;65174;48.138;21.002;2023-04-26T12:24:04;0.60;;;0.60;;
76125;SDS011;65174;48.138;21.002;2023-04-26T12:27:06;3.47;;;0.93;;
76125;SDS011;65174;48.138;21.002;2023-04-26T12:30:09;1.40;;;0.70;;
76125;SDS011;65174;48.138;21.002;2023-04-26T12:33:11;0.68;;;0.45;;
76125;SDS011;65174;48.138;21.002;2023-04-26T12:36:18;1.88;;;0.73;;
76125;SDS011;65174;48.138;21.002;2023-04-26T12:39:20;0.67;;;0.40;;
76125;SDS011;65174;48.138;21.002;2023-04-26T12:42:22;0.65;;;0.65;;
76125;SDS011;65174;48.138;21.002;2023-04-26T12:45:24;1.27;;;1.00;;
76125;SDS011;65174;48.138;21.002;2023-04-26T12:48:27;0.63;;;0.50;;
76125;SDS011;65174;48.138;21.002;2023-04-26T12:51:29;1.10;;;0.98;;
76125;SDS011;65174;48.138;21.002;2023-04-26T12:54:34;1.13;;;0.73;;
76125;SDS011;65174;48.138;21.002;2023-04-26T12:57:36;1.85;;;0.63;;
76125;SDS011;65174;48.138;21.002;2023-04-26T13:00:40;0.80;;;0.65;;
76125;SDS011;65174;48.138;21.002;2023-04-26T13:03:51;0.98;;;0.65;;
76125;SDS011;65174;48.138;21.002;2023-04-26T13:06:53;1.10;;;0.77;;
76125;SDS011;65174;48.138;21.002;2023-04-26T13:09:56;2.10;;;0.70;;
76125;SDS011;65174;48.138;21.002;2023-04-26T13:13:23;0.75;;;0.60;;
76125;SDS011;65174;48.138;21.002;2023-04-26T13:16:43;1.05;;;0.90;;
76125;SDS011;65174;48.138;21.002;2023-04-26T13:19:45;0.70;;;0.60;;
76125;SDS011;65174;48.138;21.002;2023-04-26T13:22:47;0.80;;;0.70;;
76125;SDS011;65174;48.138;21.002;2023-04-26T13:25:49;0.77;;;0.67;;
76125;SDS011;65174;48.138;21.002;2023-04-26T13:28:51;1.17;;;0.73;;
76125;SDS011;65174;48.138;21.002;2023-04-26T13:31:53;2.05;;;1.10;;
76125;SDS011;65174;48.138;21.002;2023-04-26T13:34:56;0.80;;;0.80;;
76125;SDS011;65174;48.138;21.002;2023-04-26T13:37:58;1.05;;;0.73;;
76125;SDS011;65174;48.138;21.002;2023-04-26T13:41:01;0.70;;;0.70;;
76125;SDS011;65174;48.138;21.002;2023-04-26T13:44:03;0.88;;;0.70;;
76125;SDS011;65174;48.138;21.002;2023-04-26T13:47:05;1.25;;;1.05;;
76125;SDS011;65174;48.138;21.002;2023-04-26T13:50:08;1.30;;;0.75;;
76125;SDS011;65174;48.138;21.002;2023-04-26T13:53:10;1.00;;;0.80;;
76125;SDS011;65174;48.138;21.002;2023-04-26T13:56:12;3.53;;;0.70;;
76125;SDS011;65174;48.138;21.002;2023-04-26T13:59:14;3.78;;;1.63;;
76125;SDS011;65174;48.138;21.002;2023-04-26T14:02:17;1.70;;;1.35;;
76125;SDS011;65174;48.138;21.002;2023-04-26T14:05:19;2.47;;;1.35;;
76125;SDS011;65174;48.138;21.002;2023-04-26T14:08:22;0.88;;;0.80;;
76125;SDS011;65174;48.138;21.002;2023-04-26T14:11:25;0.77;;;0.67;;
76125;SDS011;65174;48.138;21.002;2023-04-26T14:14:27;0.75;;;0.60;;
76125;SDS011;65174;48.138;21.002;2023-04-26T14:17:49;1.80;;;1.33;;
76125;SDS011;65174;48.138;21.002;2023-04-26T14:21:11;0.75;;;0.60;;
76125;SDS011;65174;48.138;21.002;2023-04-26T14:24:33;2.65;;;1.80;;
76125;SDS011;65174;48.138;21.002;2023-04-26T14:27:55;2.90;;;1.20;;
76125;SDS011;65174;48.138;21.002;2023-04-26T14:31:17;2.35;;;1.85;;
76125;SDS011;65174;48.138;21.002;2023-04-26T14:34:40;1.35;;;1.25;;
76125;SDS011;65174;48.138;21.002;2023-04-26T14:37:42;4.55;;;2.08;;
76125;SDS011;65174;48.138;21.002;2023-04-26T14:40:44;3.30;;;1.80;;
76125;SDS011;65174;48.138;21.002;2023-04-26T14:43:47;1.13;;;1.03;;
76125;SDS011;65174;48.138;21.002;2023-04-26T14:46:49;0.52;;;0.52;;
76125;SDS011;65174;48.138;21.002;2023-04-26T14:49:51;1.55;;;1.10;;
76125;SDS011;65174;48.138;21.002;2023-04-26T14:52:54;1.30;;;1.15;;
76125;SDS011;65174;48.138;21.002;2023-04-26T14:55:57;1.40;;;0.70;;
76125;SDS011;65174;48.138;21.002;2023-04-26T14:58:59;3.93;;;1.00;;
76125;SDS011;65174;48.138;21.002;2023-04-26T15:02:02;1.08;;;0.73;;
76125;SDS011;65174;48.138;21.002;2023-04-26T15:05:05;1.40;;;0.68;;
76125;SDS011;65174;48.138;21.002;2023-04-26T15:08:08;2.03;;;1.33;;
76125;SDS011;65174;48.138;21.002;2023-04-26T15:11:22;1.73;;;1.08;;
76125;SDS011;65174;48.138;21.002;2023-04-26T15:14:25;1.10;;;0.80;;
76125;SDS011;65174;48.138;21.002;2023-04-26T15:17:30;2.08;;;0.90;;
76125;SDS011;65174;48.138;21.002;2023-04-26T15:20:32;2.08;;;1.02;;
76125;SDS011;65174;48.138;21.002;2023-04-26T15:23:34;1.85;;;1.20;;
76125;SDS011;65174;48.138;21.002;2023-04-26T15:26:36;1.60;;;1.10;;
76125;SDS011;65174;48.138;21.002;2023-04-26T15:29:38;1.30;;;1.20;;
76125;SDS011;65174;48.138;21.002;2023-04-26T15:32:40;0.90;;;0.50;;
76125;SDS011;65174;48.138;21.002;2023-04-26T15:35:43;2.58;;;1.50;;
76125;SDS011;65174;48.138;21.002;2023-04-26T15:38:45;1.00;;;1.00;;
76125;SDS011;65174;48.138;21.002;2023-04-26T15:41:48;1.30;;;0.85;;
76125;SDS011;65174;48.138;21.002;2023-04-26T15:44:50;0.80;;;0.80;;
76125;SDS011;65174;48.138;21.002;2023-04-26T15:47:52;1.67;;;0.80;;
76125;SDS011;65174;48.138;21.002;2023-04-26T15:50:56;0.80;;;0.80;;
76125;SDS011;65174;48.138;21.002;2023-04-26T15:53:58;2.95;;;1.95;;
76125;SDS011;65174;48.138;21.002;2023-04-26T15:57:00;4.13;;;2.10;;
76125;SDS011;65174;48.138;21.002;2023-04-26T16:00:04;1.00;;;0.90;;
76125;SDS011;65174;48.138;21.002;2023-04-26T16:03:09;0.63;;;0.43;;
76125;SDS011;65174;48.138;21.002;2023-04-26T16:06:11;1.00;;;0.65;;
76125;SDS011;65174;48.138;21.002;2023-04-26T16:09:13;2.10;;;1.90;;
76125;SDS011;65174;48.138;21.002;2023-04-26T16:12:26;0.90;;;0.80;;
76125;SDS011;65174;48.138;21.002;2023-04-26T16:15:28;4.77;;;1.40;;
76125;SDS011;65174;48.138;21.002;2023-04-26T16:18:30;2.00;;;1.35;;
76125;SDS011;65174;48.138;21.002;2023-04-26T16:21:32;2.42;;;0.95;;
76125;SDS011;65174;48.138;21.002;2023-04-26T16:24:36;1.45;;;0.70;;
76125;SDS011;65174;48.138;21.002;2023-04-26T16:27:38;1.63;;;0.68;;
76125;SDS011;65174;48.138;21.002;2023-04-26T16:30:41;0.80;;;0.73;;
76125;SDS011;65174;48.138;21.002;2023-04-26T16:33:43;1.00;;;0.90;;
76125;SDS011;65174;48.138;21.002;2023-04-26T16:36:45;1.15;;;0.90;;
76125;SDS011;65174;48.138;21.002;2023-04-26T16:39:47;1.10;;;1.00;;
76125;SDS011;65174;48.138;21.002;2023-04-26T16:42:49;3.97;;;0.70;;
76125;SDS011;65174;48.138;21.002;2023-04-26T16:45:58;1.90;;;0.57;;
76125;SDS011;65174;48.138;21.002;2023-04-26T16:49:04;0.70;;;0.50;;
76125;SDS011;65174;48.138;21.002;2023-04-26T16:52:10;0.90;;;0.63;;
76125;SDS011;65174;48.138;21.002;2023-04-26T16:55:12;0.80;;;0.73;;
76125;SDS011;65174;48.138;21.002;2023-04-26T16:58:14;1.80;;;1.00;;
76125;SDS011;65174;48.138;21.002;2023-04-26T17:01:16;1.23;;;0.70;;
76125;SDS011;65174;48.138;21.002;2023-04-26T17:04:18;1.17;;;0.77;;
76125;SDS011;65174;48.138;21.002;2023-04-26T17:07:21;1.15;;;1.05;;
76125;SDS011;65174;48.138;21.002;2023-04-26T17:10:24;1.15;;;0.88;;
76125;SDS011;65174;48.138;21.002;2023-04-26T17:13:26;0.75;;;0.60;;
76125;SDS011;65174;48.138;21.002;2023-04-26T17:16:33;1.43;;;1.33;;
76125;SDS011;65174;48.138;21.002;2023-04-26T17:19:35;1.63;;;1.52;;
76125;SDS011;65174;48.138;21.002;2023-04-26T17:22:37;2.05;;;1.15;;
76125;SDS011;65174;48.138;21.002;2023-04-26T17:25:41;1.77;;;1.23;;
76125;SDS011;65174;48.138;21.002;2023-04-26T17:28:43;3.85;;;2.75;;
76125;SDS011;65174;48.138;21.002;2023-04-26T17:31:45;2.30;;;2.10;;
76125;SDS011;65174;48.138;21.002;2023-04-26T17:34:47;4.78;;;3.65;;
76125;SDS011;65174;48.138;21.002;2023-04-26T17:37:49;1.17;;;1.05;;
76125;SDS011;65174;48.138;21.002;2023-04-26T17:40:51;1.45;;;0.80;;
76125;SDS011;65174;48.138;21.002;2023-04-26T17:43:55;1.10;;;1.00;;
76125;SDS011;65174;48.138;21.002;2023-04-26T17:46:57;1.33;;;0.70;;
76125;SDS011;65174;48.138;21.002;2023-04-26T17:49:59;1.10;;;1.00;;
76125;SDS011;65174;48.138;21.002;2023-04-26T17:53:01;1.58;;;1.27;;
76125;SDS011;65174;48.138;21.002;2023-04-26T17:56:06;2.08;;;1.33;;
76125;SDS011;65174;48.138;21.002;2023-04-26T17:59:11;1.20;;;1.10;;
76125;SDS011;65174;48.138;21.002;2023-04-26T18:02:13;2.77;;;1.87;;
76125;SDS011;65174;48.138;21.002;2023-04-26T18:05:16;2.08;;;1.80;;
76125;SDS011;65174;48.138;21.002;2023-04-26T18:08:18;6.97;;;1.92;;
76125;SDS011;65174;48.138;21.002;2023-04-26T18:11:21;3.42;;;1.50;;
76125;SDS011;65174;48.138;21.002;2023-04-26T18:14:23;3.42;;;2.15;;
76125;SDS011;65174;48.138;21.002;2023-04-26T18:17:26;2.00;;;1.67;;
76125;SDS011;65174;48.138;21.002;2023-04-26T18:20:29;3.10;;;1.80;;
76125;SDS011;65174;48.138;21.002;2023-04-26T18:23:32;1.55;;;1.45;;